createdAt,value
2023-05-11T05:30:36.439Z,12.20
2023-05-11T05:33:38.109Z,12.10
2023-05-11T05:36:40.749Z,12.30
2023-05-11T05:39:42.409Z,12.30
2023-05-11T05:42:44.144Z,12.20
2023-05-11T05:45:45.804Z,12.00
2023-05-11T05:48:54.959Z,12.10
2023-05-11T05:51:57.937Z,12.30
2023-05-11T05:54:59.607Z,12.50
2023-05-11T05:58:01.293Z,12.50
2023-05-11T06:01:03.199Z,12.50
2023-05-11T06:04:05.371Z,12.60
2023-05-11T06:07:07.689Z,12.60
2023-05-11T06:10:09.602Z,12.70
2023-05-11T06:49:50.377Z,12.00
2023-05-11T06:52:52.143Z,12.20
2023-05-11T06:55:55.646Z,12.80
2023-05-11T06:58:57.543Z,13.10
2023-05-11T07:01:59.657Z,13.40
2023-05-11T07:05:01.584Z,13.60
2023-05-11T07:08:05.038Z,13.70
2023-05-11T07:11:07.426Z,13.50
2023-05-11T07:14:09.346Z,13.50
2023-05-11T07:17:11.221Z,13.60
2023-05-11T07:20:13.411Z,13.60
2023-05-11T07:23:15.448Z,13.20
2023-05-11T07:26:17.471Z,13.20
2023-05-11T07:29:19.267Z,13.40
2023-05-11T07:32:21.205Z,13.70
2023-05-11T07:35:24.132Z,14.00
2023-05-11T07:38:26.052Z,14.00
2023-05-11T07:41:28.825Z,14.10
2023-05-11T07:44:30.923Z,14.20
2023-05-11T07:47:35.142Z,14.30
2023-05-11T07:50:38.493Z,14.20
2023-05-11T07:53:40.468Z,14.30
2023-05-11T07:56:42.405Z,14.30
2023-05-11T07:59:44.215Z,14.60
2023-05-11T08:02:46.453Z,14.60
2023-05-11T08:05:48.475Z,14.40
2023-05-11T08:08:50.655Z,14.20
2023-05-11T08:11:53.340Z,14.50
2023-05-11T08:14:55.457Z,14.70
2023-05-11T08:17:57.325Z,14.60
2023-05-11T08:21:00.272Z,14.60
2023-05-11T08:24:02.007Z,14.80
2023-05-11T08:27:05.020Z,14.90
2023-05-11T08:30:08.939Z,15.00
2023-05-11T08:33:33.885Z,15.00
2023-05-11T08:36:36.100Z,15.20
2023-05-11T08:39:47.326Z,15.00
2023-05-11T08:42:53.206Z,14.60
2023-05-11T08:45:58.724Z,13.80
2023-05-11T08:49:00.878Z,14.20
2023-05-11T08:52:07.699Z,14.40
2023-05-11T08:55:10.353Z,14.70
2023-05-11T08:58:15.114Z,14.80
2023-05-11T09:01:19.216Z,14.50
2023-05-11T09:04:22.506Z,14.80
2023-05-11T09:07:26.890Z,15.10
2023-05-11T09:10:28.783Z,15.10
2023-05-11T09:13:32.102Z,14.90
2023-05-11T09:16:37.525Z,14.70
2023-05-11T09:20:00.037Z,14.60
2023-05-11T09:23:02.111Z,14.20
2023-05-11T09:26:03.887Z,14.50
2023-05-11T09:29:05.732Z,14.30
2023-05-11T09:32:08.077Z,14.50
2023-05-11T09:35:24.126Z,14.70
2023-05-11T09:38:26.310Z,14.60
2023-05-11T09:41:34.882Z,14.40
2023-05-11T09:44:37.369Z,15.00
2023-05-11T09:47:43.055Z,14.90
2023-05-11T09:50:46.686Z,14.90
2023-05-11T09:53:49.256Z,15.10
2023-05-11T09:57:01.155Z,14.90
2023-05-11T10:00:05.781Z,14.30
2023-05-11T10:03:08.761Z,14.00
2023-05-11T10:06:11.627Z,14.60
2023-05-11T10:09:15.638Z,14.50
2023-05-11T10:12:18.964Z,14.70
2023-05-11T10:15:25.261Z,14.70
2023-05-11T10:18:27.794Z,14.80
2023-05-11T10:21:30.748Z,14.90
2023-05-11T10:24:33.656Z,15.00
2023-05-11T10:27:37.426Z,15.20
2023-05-11T10:30:42.891Z,15.10
2023-05-11T10:33:44.734Z,15.30
2023-05-11T10:36:47.499Z,15.20
2023-05-11T10:39:50.661Z,14.70
2023-05-11T10:43:18.434Z,15.30
2023-05-11T10:46:53.933Z,15.40
2023-05-11T10:50:28.303Z,15.30
2023-05-11T10:53:51.140Z,15.10
2023-05-11T10:57:20.735Z,15.30
2023-05-11T11:00:53.773Z,15.40
2023-05-11T11:04:00.248Z,15.40
2023-05-11T11:07:06.509Z,15.30
2023-05-11T11:10:09.217Z,15.20
2023-05-11T11:13:13.159Z,15.30
2023-05-11T11:16:16.607Z,15.60
2023-05-11T11:19:29.580Z,15.20
2023-05-11T11:22:38.662Z,15.80
2023-05-11T11:25:54.307Z,15.70
2023-05-11T11:29:02.080Z,15.90
2023-05-11T11:32:23.042Z,15.80
2023-05-11T11:35:39.947Z,15.80
2023-05-11T11:39:01.342Z,15.60
2023-05-11T11:42:05.582Z,16.10
2023-05-11T11:45:30.403Z,16.40
2023-05-11T11:48:40.495Z,15.80
2023-05-11T11:51:42.363Z,16.20
2023-05-11T11:54:45.502Z,16.70
2023-05-11T11:57:51.145Z,16.70
2023-05-11T12:00:52.835Z,17.00
2023-05-11T12:04:22.137Z,16.30
2023-05-11T12:07:26.024Z,16.10
2023-05-11T12:10:27.791Z,16.30
2023-05-11T12:13:30.041Z,16.70
2023-05-11T12:16:32.581Z,17.00
2023-05-11T12:19:34.926Z,16.70
2023-05-11T12:22:36.669Z,16.70
2023-05-11T12:25:38.484Z,17.10
2023-05-11T12:28:40.303Z,17.00
2023-05-11T12:31:43.913Z,16.80
2023-05-11T12:35:04.272Z,17.10
2023-05-11T12:38:06.200Z,17.10
2023-05-11T12:41:11.249Z,17.00
2023-05-11T12:44:15.719Z,17.30
2023-05-11T12:47:18.149Z,16.80
2023-05-11T12:50:20.992Z,16.70
2023-05-11T12:53:22.737Z,17.10
2023-05-11T12:56:24.414Z,17.60
2023-05-11T12:59:34.939Z,17.40
2023-05-11T13:02:44.750Z,17.80
2023-05-11T13:05:46.530Z,17.60
2023-05-11T13:08:48.229Z,17.70
2023-05-11T13:11:49.912Z,17.60
2023-05-11T13:15:13.709Z,17.30
2023-05-11T13:18:16.899Z,17.60
2023-05-11T13:21:19.316Z,17.50
2023-05-11T13:24:22.348Z,17.60
2023-05-11T13:27:23.948Z,17.10
2023-05-11T13:30:25.881Z,17.00
2023-05-11T13:33:27.774Z,17.10
2023-05-11T13:36:29.631Z,17.10
2023-05-11T13:39:31.241Z,17.00
2023-05-11T13:42:33.169Z,17.50
2023-05-11T13:45:36.458Z,17.60
2023-05-11T13:48:38.255Z,17.80
2023-05-11T13:51:39.865Z,17.90
2023-05-11T13:54:42.070Z,18.10
2023-05-11T13:57:43.798Z,18.20
2023-05-11T14:00:56.451Z,18.30
2023-05-11T14:04:09.639Z,17.50
2023-05-11T14:07:11.269Z,16.90
2023-05-11T14:10:13.699Z,17.00
2023-05-11T14:13:15.671Z,17.80
2023-05-11T14:16:18.579Z,17.90
2023-05-11T14:19:20.261Z,18.00
2023-05-11T14:22:21.976Z,18.00
2023-05-11T14:25:23.994Z,18.00
2023-05-11T14:28:26.218Z,17.70
2023-05-11T14:31:28.106Z,17.30
2023-05-11T14:34:29.802Z,17.10
2023-05-11T14:37:31.687Z,17.30
2023-05-11T14:40:33.462Z,17.40
2023-05-11T14:43:35.365Z,17.10
2023-05-11T14:46:37.126Z,17.50
2023-05-11T14:49:38.842Z,17.60
2023-05-11T14:52:40.819Z,17.30
2023-05-11T14:55:42.676Z,17.40
2023-05-11T14:58:44.315Z,17.20
2023-05-11T15:01:45.973Z,16.70
2023-05-11T15:04:47.635Z,16.40
2023-05-11T15:07:49.374Z,16.90
2023-05-11T15:10:51.130Z,17.20
2023-05-11T15:13:52.821Z,17.30
2023-05-11T15:16:58.104Z,16.80
2023-05-11T15:19:59.950Z,16.80
2023-05-11T15:23:03.120Z,16.60
2023-05-11T15:26:04.804Z,16.50
2023-05-11T15:29:06.602Z,16.60
2023-05-11T15:32:08.805Z,16.50
2023-05-11T15:35:10.648Z,16.70
2023-05-11T15:38:12.393Z,16.90
2023-05-11T15:41:14.041Z,16.80
2023-05-11T15:44:16.353Z,16.70
2023-05-11T15:47:18.037Z,16.80
2023-05-11T15:50:20.482Z,16.90
2023-05-11T15:53:22.376Z,16.50
2023-05-11T15:56:24.055Z,16.50
2023-05-11T15:59:25.808Z,16.60
